sensor_id;sensor_type;location;lat;lon;timestamp;P1;durP1;ratioP1;P2;durP2;ratioP2
69207;SDS011;70114;47.690;8.898;2023-09-19T00:01:14;4.53;;;0.70;;
69207;SDS011;70114;47.690;8.898;2023-09-19T00:03:40;6.25;;;0.80;;
69207;SDS011;70114;47.690;8.898;2023-09-19T00:06:07;4.63;;;0.70;;
69207;SDS011;70114;47.690;8.898;2023-09-19T00:08:33;5.30;;;0.80;;
69207;SDS011;70114;47.690;8.898;2023-09-19T00:10:59;5.10;;;0.70;;
69207;SDS011;70114;47.690;8.898;2023-09-19T00:13:30;4.75;;;0.63;;
69207;SDS011;70114;47.690;8.898;2023-09-19T00:16:00;5.57;;;0.75;;
69207;SDS011;70114;47.690;8.898;2023-09-19T00:18:26;4.27;;;0.63;;
69207;SDS011;70114;47.690;8.898;2023-09-19T00:21:00;4.32;;;0.68;;
69207;SDS011;70114;47.690;8.898;2023-09-19T00:23:26;4.67;;;0.50;;
69207;SDS011;70114;47.690;8.898;2023-09-19T00:25:53;4.07;;;0.60;;
69207;SDS011;70114;47.690;8.898;2023-09-19T00:28:22;5.40;;;0.80;;
69207;SDS011;70114;47.690;8.898;2023-09-19T00:30:48;4.75;;;0.77;;
69207;SDS011;70114;47.690;8.898;2023-09-19T00:33:16;4.30;;;0.60;;
69207;SDS011;70114;47.690;8.898;2023-09-19T00:35:53;5.17;;;0.67;;
69207;SDS011;70114;47.690;8.898;2023-09-19T00:38:20;4.05;;;0.50;;
69207;SDS011;70114;47.690;8.898;2023-09-19T00:40:47;4.85;;;0.60;;
69207;SDS011;70114;47.690;8.898;2023-09-19T00:43:14;5.07;;;0.55;;
69207;SDS011;70114;47.690;8.898;2023-09-19T00:45:42;3.72;;;0.55;;
69207;SDS011;70114;47.690;8.898;2023-09-19T00:48:10;4.10;;;0.53;;
69207;SDS011;70114;47.690;8.898;2023-09-19T00:50:36;3.88;;;0.52;;
69207;SDS011;70114;47.690;8.898;2023-09-19T00:53:06;4.15;;;0.70;;
69207;SDS011;70114;47.690;8.898;2023-09-19T00:55:33;3.40;;;0.38;;
69207;SDS011;70114;47.690;8.898;2023-09-19T00:57:59;3.88;;;0.50;;
69207;SDS011;70114;47.690;8.898;2023-09-19T01:00:25;5.33;;;0.53;;
69207;SDS011;70114;47.690;8.898;2023-09-19T01:02:51;4.38;;;0.52;;
69207;SDS011;70114;47.690;8.898;2023-09-19T01:05:17;3.47;;;0.40;;
69207;SDS011;70114;47.690;8.898;2023-09-19T01:07:43;3.73;;;0.50;;
69207;SDS011;70114;47.690;8.898;2023-09-19T01:10:10;3.47;;;0.50;;
69207;SDS011;70114;47.690;8.898;2023-09-19T01:13:01;5.00;;;0.47;;
69207;SDS011;70114;47.690;8.898;2023-09-19T01:18:16;3.58;;;0.45;;
69207;SDS011;70114;47.690;8.898;2023-09-19T01:20:52;2.57;;;0.37;;
69207;SDS011;70114;47.690;8.898;2023-09-19T01:23:39;4.93;;;0.50;;
69207;SDS011;70114;47.690;8.898;2023-09-19T01:31:44;3.65;;;0.43;;
69207;SDS011;70114;47.690;8.898;2023-09-19T01:34:10;5.30;;;0.63;;
69207;SDS011;70114;47.690;8.898;2023-09-19T01:36:36;3.88;;;0.50;;
69207;SDS011;70114;47.690;8.898;2023-09-19T01:39:13;3.58;;;0.55;;
69207;SDS011;70114;47.690;8.898;2023-09-19T01:47:28;3.17;;;0.45;;
69207;SDS011;70114;47.690;8.898;2023-09-19T01:49:56;3.42;;;0.50;;
69207;SDS011;70114;47.690;8.898;2023-09-19T01:52:28;4.05;;;0.50;;
69207;SDS011;70114;47.690;8.898;2023-09-19T01:55:02;3.75;;;0.55;;
69207;SDS011;70114;47.690;8.898;2023-09-19T02:00:15;3.95;;;0.63;;
69207;SDS011;70114;47.690;8.898;2023-09-19T02:02:47;3.42;;;0.63;;
69207;SDS011;70114;47.690;8.898;2023-09-19T02:05:14;5.43;;;0.60;;
69207;SDS011;70114;47.690;8.898;2023-09-19T02:07:48;4.57;;;0.50;;
69207;SDS011;70114;47.690;8.898;2023-09-19T02:10:13;3.97;;;0.60;;
69207;SDS011;70114;47.690;8.898;2023-09-19T02:12:39;4.30;;;0.57;;
69207;SDS011;70114;47.690;8.898;2023-09-19T02:15:05;4.22;;;0.75;;
69207;SDS011;70114;47.690;8.898;2023-09-19T02:17:31;4.97;;;1.20;;
69207;SDS011;70114;47.690;8.898;2023-09-19T02:19:57;4.57;;;0.70;;
69207;SDS011;70114;47.690;8.898;2023-09-19T02:22:23;4.80;;;0.60;;
69207;SDS011;70114;47.690;8.898;2023-09-19T02:24:49;3.38;;;0.57;;
69207;SDS011;70114;47.690;8.898;2023-09-19T02:27:16;4.28;;;0.70;;
69207;SDS011;70114;47.690;8.898;2023-09-19T02:29:42;5.03;;;0.70;;
69207;SDS011;70114;47.690;8.898;2023-09-19T02:32:08;4.67;;;0.80;;
69207;SDS011;70114;47.690;8.898;2023-09-19T02:34:34;3.67;;;0.80;;
69207;SDS011;70114;47.690;8.898;2023-09-19T02:37:02;4.35;;;0.70;;
69207;SDS011;70114;47.690;8.898;2023-09-19T02:39:30;5.93;;;1.07;;
69207;SDS011;70114;47.690;8.898;2023-09-19T02:41:56;3.63;;;0.52;;
69207;SDS011;70114;47.690;8.898;2023-09-19T02:44:21;5.40;;;0.70;;
69207;SDS011;70114;47.690;8.898;2023-09-19T02:46:48;4.67;;;0.90;;
69207;SDS011;70114;47.690;8.898;2023-09-19T02:49:14;4.97;;;0.90;;
69207;SDS011;70114;47.690;8.898;2023-09-19T02:51:40;3.27;;;0.50;;
69207;SDS011;70114;47.690;8.898;2023-09-19T02:54:05;4.82;;;0.52;;
69207;SDS011;70114;47.690;8.898;2023-09-19T02:56:31;4.70;;;0.70;;
69207;SDS011;70114;47.690;8.898;2023-09-19T02:58:57;5.50;;;0.65;;
69207;SDS011;70114;47.690;8.898;2023-09-19T03:01:23;5.55;;;0.70;;
69207;SDS011;70114;47.690;8.898;2023-09-19T03:03:48;5.27;;;0.50;;
69207;SDS011;70114;47.690;8.898;2023-09-19T03:06:14;2.65;;;0.40;;
69207;SDS011;70114;47.690;8.898;2023-09-19T03:08:40;4.82;;;0.60;;
69207;SDS011;70114;47.690;8.898;2023-09-19T03:11:10;4.10;;;0.53;;
69207;SDS011;70114;47.690;8.898;2023-09-19T03:13:37;4.88;;;0.77;;
69207;SDS011;70114;47.690;8.898;2023-09-19T03:16:03;3.20;;;0.50;;
69207;SDS011;70114;47.690;8.898;2023-09-19T03:18:31;3.83;;;0.50;;
69207;SDS011;70114;47.690;8.898;2023-09-19T03:20:59;4.18;;;0.60;;
69207;SDS011;70114;47.690;8.898;2023-09-19T03:23:25;3.63;;;0.40;;
69207;SDS011;70114;47.690;8.898;2023-09-19T03:25:51;3.35;;;0.55;;
69207;SDS011;70114;47.690;8.898;2023-09-19T03:28:17;4.22;;;0.75;;
69207;SDS011;70114;47.690;8.898;2023-09-19T03:30:43;3.45;;;0.43;;
69207;SDS011;70114;47.690;8.898;2023-09-19T03:33:09;3.63;;;0.50;;
69207;SDS011;70114;47.690;8.898;2023-09-19T03:35:37;4.32;;;0.50;;
69207;SDS011;70114;47.690;8.898;2023-09-19T03:38:03;2.90;;;0.50;;
69207;SDS011;70114;47.690;8.898;2023-09-19T03:40:29;3.55;;;0.50;;
69207;SDS011;70114;47.690;8.898;2023-09-19T03:42:55;3.63;;;0.40;;
69207;SDS011;70114;47.690;8.898;2023-09-19T03:45:20;3.20;;;0.40;;
69207;SDS011;70114;47.690;8.898;2023-09-19T03:47:46;2.78;;;0.40;;
69207;SDS011;70114;47.690;8.898;2023-09-19T03:50:14;5.00;;;0.50;;
69207;SDS011;70114;47.690;8.898;2023-09-19T03:52:42;3.93;;;0.60;;
69207;SDS011;70114;47.690;8.898;2023-09-19T03:55:08;3.10;;;0.40;;
69207;SDS011;70114;47.690;8.898;2023-09-19T03:57:34;3.80;;;0.47;;
69207;SDS011;70114;47.690;8.898;2023-09-19T04:00:01;6.15;;;0.47;;
69207;SDS011;70114;47.690;8.898;2023-09-19T04:02:27;2.95;;;0.30;;
69207;SDS011;70114;47.690;8.898;2023-09-19T04:04:58;3.50;;;0.40;;
69207;SDS011;70114;47.690;8.898;2023-09-19T04:07:23;4.13;;;0.40;;
69207;SDS011;70114;47.690;8.898;2023-09-19T04:09:51;2.90;;;0.40;;
69207;SDS011;70114;47.690;8.898;2023-09-19T04:12:18;3.72;;;0.40;;
69207;SDS011;70114;47.690;8.898;2023-09-19T04:14:44;4.17;;;0.50;;
69207;SDS011;70114;47.690;8.898;2023-09-19T04:17:09;3.28;;;0.40;;
69207;SDS011;70114;47.690;8.898;2023-09-19T04:19:35;4.73;;;0.60;;
69207;SDS011;70114;47.690;8.898;2023-09-19T04:22:01;3.38;;;0.40;;
69207;SDS011;70114;47.690;8.898;2023-09-19T04:24:27;4.37;;;0.40;;
69207;SDS011;70114;47.690;8.898;2023-09-19T04:26:52;1.90;;;0.30;;
69207;SDS011;70114;47.690;8.898;2023-09-19T04:29:17;3.13;;;0.47;;
69207;SDS011;70114;47.690;8.898;2023-09-19T04:31:44;3.97;;;0.40;;
69207;SDS011;70114;47.690;8.898;2023-09-19T04:34:11;2.80;;;0.38;;
69207;SDS011;70114;47.690;8.898;2023-09-19T04:36:40;3.45;;;0.40;;
69207;SDS011;70114;47.690;8.898;2023-09-19T04:39:05;2.73;;;0.40;;
69207;SDS011;70114;47.690;8.898;2023-09-19T04:41:30;4.97;;;0.50;;
69207;SDS011;70114;47.690;8.898;2023-09-19T04:43:56;3.20;;;0.50;;
69207;SDS011;70114;47.690;8.898;2023-09-19T04:46:21;3.23;;;0.40;;
69207;SDS011;70114;47.690;8.898;2023-09-19T04:48:47;2.83;;;0.37;;
69207;SDS011;70114;47.690;8.898;2023-09-19T04:51:12;1.93;;;0.30;;
69207;SDS011;70114;47.690;8.898;2023-09-19T04:53:38;2.92;;;0.40;;
69207;SDS011;70114;47.690;8.898;2023-09-19T04:56:04;2.70;;;0.30;;
69207;SDS011;70114;47.690;8.898;2023-09-19T04:58:31;3.78;;;0.40;;
69207;SDS011;70114;47.690;8.898;2023-09-19T05:00:57;3.40;;;0.40;;
69207;SDS011;70114;47.690;8.898;2023-09-19T05:03:22;4.95;;;0.40;;
69207;SDS011;70114;47.690;8.898;2023-09-19T05:05:48;2.87;;;0.30;;
69207;SDS011;70114;47.690;8.898;2023-09-19T05:08:14;2.30;;;0.30;;
69207;SDS011;70114;47.690;8.898;2023-09-19T05:10:40;2.75;;;0.30;;
69207;SDS011;70114;47.690;8.898;2023-09-19T05:13:05;3.67;;;0.40;;
69207;SDS011;70114;47.690;8.898;2023-09-19T05:15:32;2.38;;;0.30;;
69207;SDS011;70114;47.690;8.898;2023-09-19T05:17:58;3.57;;;0.33;;
69207;SDS011;70114;47.690;8.898;2023-09-19T05:20:24;2.60;;;0.30;;
69207;SDS011;70114;47.690;8.898;2023-09-19T05:23:00;3.05;;;0.40;;
69207;SDS011;70114;47.690;8.898;2023-09-19T05:25:35;2.65;;;0.40;;
69207;SDS011;70114;47.690;8.898;2023-09-19T05:28:07;3.92;;;0.40;;
69207;SDS011;70114;47.690;8.898;2023-09-19T05:30:37;3.38;;;0.40;;
69207;SDS011;70114;47.690;8.898;2023-09-19T05:33:06;4.10;;;0.30;;
69207;SDS011;70114;47.690;8.898;2023-09-19T05:35:32;3.65;;;0.40;;
69207;SDS011;70114;47.690;8.898;2023-09-19T05:37:58;3.03;;;0.30;;
69207;SDS011;70114;47.690;8.898;2023-09-19T05:40:24;4.72;;;0.55;;
69207;SDS011;70114;47.690;8.898;2023-09-19T05:42:51;3.13;;;0.50;;
69207;SDS011;70114;47.690;8.898;2023-09-19T05:45:17;3.85;;;0.40;;
69207;SDS011;70114;47.690;8.898;2023-09-19T05:47:47;3.20;;;0.30;;
69207;SDS011;70114;47.690;8.898;2023-09-19T05:50:13;3.03;;;0.40;;
69207;SDS011;70114;47.690;8.898;2023-09-19T05:52:40;4.53;;;0.40;;
69207;SDS011;70114;47.690;8.898;2023-09-19T05:55:06;2.00;;;0.30;;
69207;SDS011;70114;47.690;8.898;2023-09-19T05:57:35;3.80;;;0.45;;
69207;SDS011;70114;47.690;8.898;2023-09-19T06:00:00;3.58;;;0.40;;
69207;SDS011;70114;47.690;8.898;2023-09-19T06:02:26;5.57;;;0.53;;
69207;SDS011;70114;47.690;8.898;2023-09-19T06:04:55;3.40;;;0.50;;
69207;SDS011;70114;47.690;8.898;2023-09-19T06:07:24;2.90;;;0.50;;
69207;SDS011;70114;47.690;8.898;2023-09-19T06:09:51;3.53;;;0.50;;
69207;SDS011;70114;47.690;8.898;2023-09-19T06:12:18;2.77;;;0.40;;
69207;SDS011;70114;47.690;8.898;2023-09-19T06:14:44;3.45;;;0.50;;
69207;SDS011;70114;47.690;8.898;2023-09-19T06:17:09;4.93;;;0.53;;
69207;SDS011;70114;47.690;8.898;2023-09-19T06:19:35;3.55;;;0.40;;
69207;SDS011;70114;47.690;8.898;2023-09-19T06:22:01;4.70;;;0.40;;
69207;SDS011;70114;47.690;8.898;2023-09-19T06:24:26;3.17;;;0.40;;
69207;SDS011;70114;47.690;8.898;2023-09-19T06:26:52;4.83;;;0.60;;
69207;SDS011;70114;47.690;8.898;2023-09-19T06:29:17;3.87;;;0.50;;
69207;SDS011;70114;47.690;8.898;2023-09-19T06:31:43;3.45;;;0.55;;
69207;SDS011;70114;47.690;8.898;2023-09-19T06:34:09;2.30;;;0.35;;
69207;SDS011;70114;47.690;8.898;2023-09-19T06:36:35;3.93;;;0.50;;
69207;SDS011;70114;47.690;8.898;2023-09-19T06:39:01;4.28;;;0.40;;
69207;SDS011;70114;47.690;8.898;2023-09-19T06:41:29;3.17;;;0.40;;
69207;SDS011;70114;47.690;8.898;2023-09-19T06:43:55;3.90;;;0.40;;
69207;SDS011;70114;47.690;8.898;2023-09-19T06:46:20;3.40;;;0.60;;
69207;SDS011;70114;47.690;8.898;2023-09-19T06:48:45;3.10;;;0.40;;
69207;SDS011;70114;47.690;8.898;2023-09-19T06:51:12;3.37;;;0.40;;
69207;SDS011;70114;47.690;8.898;2023-09-19T06:53:40;3.10;;;0.40;;
69207;SDS011;70114;47.690;8.898;2023-09-19T06:56:06;3.28;;;0.50;;
69207;SDS011;70114;47.690;8.898;2023-09-19T06:58:31;4.47;;;0.70;;
69207;SDS011;70114;47.690;8.898;2023-09-19T07:00:57;3.37;;;0.50;;
69207;SDS011;70114;47.690;8.898;2023-09-19T07:03:22;3.90;;;0.50;;
69207;SDS011;70114;47.690;8.898;2023-09-19T07:05:51;3.70;;;0.50;;
69207;SDS011;70114;47.690;8.898;2023-09-19T07:08:16;4.47;;;0.40;;
69207;SDS011;70114;47.690;8.898;2023-09-19T07:10:45;3.60;;;0.40;;
69207;SDS011;70114;47.690;8.898;2023-09-19T07:13:13;3.03;;;0.40;;
69207;SDS011;70114;47.690;8.898;2023-09-19T07:15:41;4.35;;;0.50;;
69207;SDS011;70114;47.690;8.898;2023-09-19T07:18:11;5.28;;;0.60;;
69207;SDS011;70114;47.690;8.898;2023-09-19T07:20:41;3.70;;;0.60;;
69207;SDS011;70114;47.690;8.898;2023-09-19T07:23:17;4.07;;;0.52;;
69207;SDS011;70114;47.690;8.898;2023-09-19T07:25:44;4.85;;;0.80;;
69207;SDS011;70114;47.690;8.898;2023-09-19T07:28:09;4.40;;;0.60;;
69207;SDS011;70114;47.690;8.898;2023-09-19T07:30:36;4.60;;;0.60;;
69207;SDS011;70114;47.690;8.898;2023-09-19T07:33:06;4.57;;;0.63;;
69207;SDS011;70114;47.690;8.898;2023-09-19T07:35:32;3.97;;;0.50;;
69207;SDS011;70114;47.690;8.898;2023-09-19T07:37:58;3.00;;;0.50;;
69207;SDS011;70114;47.690;8.898;2023-09-19T07:40:26;3.55;;;0.52;;
69207;SDS011;70114;47.690;8.898;2023-09-19T07:42:54;3.88;;;0.57;;
69207;SDS011;70114;47.690;8.898;2023-09-19T07:45:26;4.88;;;0.65;;
69207;SDS011;70114;47.690;8.898;2023-09-19T07:47:55;3.30;;;0.50;;
69207;SDS011;70114;47.690;8.898;2023-09-19T07:50:21;3.20;;;0.43;;
69207;SDS011;70114;47.690;8.898;2023-09-19T07:52:47;6.28;;;0.60;;
69207;SDS011;70114;47.690;8.898;2023-09-19T07:55:16;3.57;;;0.57;;
69207;SDS011;70114;47.690;8.898;2023-09-19T07:57:45;3.97;;;0.90;;
69207;SDS011;70114;47.690;8.898;2023-09-19T08:00:11;3.40;;;0.50;;
69207;SDS011;70114;47.690;8.898;2023-09-19T08:02:38;3.35;;;0.57;;
69207;SDS011;70114;47.690;8.898;2023-09-19T08:05:08;4.93;;;0.50;;
69207;SDS011;70114;47.690;8.898;2023-09-19T08:07:44;4.20;;;0.43;;
69207;SDS011;70114;47.690;8.898;2023-09-19T08:10:13;4.63;;;0.60;;
69207;SDS011;70114;47.690;8.898;2023-09-19T08:12:41;3.97;;;0.60;;
69207;SDS011;70114;47.690;8.898;2023-09-19T08:15:15;3.33;;;0.45;;
69207;SDS011;70114;47.690;8.898;2023-09-19T08:17:42;3.67;;;0.70;;
69207;SDS011;70114;47.690;8.898;2023-09-19T08:20:08;3.20;;;0.63;;
69207;SDS011;70114;47.690;8.898;2023-09-19T08:22:42;4.78;;;0.80;;
69207;SDS011;70114;47.690;8.898;2023-09-19T08:25:23;3.83;;;0.60;;
69207;SDS011;70114;47.690;8.898;2023-09-19T08:27:50;3.15;;;0.50;;
69207;SDS011;70114;47.690;8.898;2023-09-19T08:30:16;4.00;;;0.60;;
69207;SDS011;70114;47.690;8.898;2023-09-19T08:32:43;3.25;;;0.60;;
69207;SDS011;70114;47.690;8.898;2023-09-19T08:35:09;4.03;;;0.73;;
69207;SDS011;70114;47.690;8.898;2023-09-19T08:37:38;3.72;;;0.63;;
69207;SDS011;70114;47.690;8.898;2023-09-19T08:40:03;4.20;;;0.70;;
69207;SDS011;70114;47.690;8.898;2023-09-19T08:42:31;4.63;;;0.70;;
69207;SDS011;70114;47.690;8.898;2023-09-19T08:44:57;7.30;;;0.73;;
69207;SDS011;70114;47.690;8.898;2023-09-19T08:47:45;3.53;;;0.50;;
69207;SDS011;70114;47.690;8.898;2023-09-19T08:50:28;6.50;;;0.60;;
69207;SDS011;70114;47.690;8.898;2023-09-19T08:52:55;3.70;;;0.60;;
69207;SDS011;70114;47.690;8.898;2023-09-19T08:55:26;3.13;;;0.50;;
69207;SDS011;70114;47.690;8.898;2023-09-19T08:57:55;5.28;;;0.70;;
69207;SDS011;70114;47.690;8.898;2023-09-19T09:00:26;4.45;;;0.93;;
69207;SDS011;70114;47.690;8.898;2023-09-19T09:02:53;4.23;;;0.70;;
69207;SDS011;70114;47.690;8.898;2023-09-19T09:05:20;6.75;;;0.90;;
69207;SDS011;70114;47.690;8.898;2023-09-19T09:07:48;3.40;;;0.60;;
69207;SDS011;70114;47.690;8.898;2023-09-19T09:10:17;3.88;;;0.90;;
69207;SDS011;70114;47.690;8.898;2023-09-19T09:12:43;4.20;;;0.70;;
69207;SDS011;70114;47.690;8.898;2023-09-19T09:15:09;3.37;;;0.70;;
69207;SDS011;70114;47.690;8.898;2023-09-19T09:17:37;3.35;;;0.60;;
69207;SDS011;70114;47.690;8.898;2023-09-19T09:20:03;4.70;;;0.80;;
69207;SDS011;70114;47.690;8.898;2023-09-19T09:22:33;4.43;;;0.73;;
69207;SDS011;70114;47.690;8.898;2023-09-19T09:24:58;4.57;;;0.80;;
69207;SDS011;70114;47.690;8.898;2023-09-19T09:27:28;3.72;;;0.70;;
69207;SDS011;70114;47.690;8.898;2023-09-19T09:29:54;3.95;;;0.80;;
69207;SDS011;70114;47.690;8.898;2023-09-19T09:32:23;4.57;;;0.67;;
69207;SDS011;70114;47.690;8.898;2023-09-19T09:34:53;5.15;;;0.88;;
69207;SDS011;70114;47.690;8.898;2023-09-19T09:37:23;4.57;;;0.70;;
69207;SDS011;70114;47.690;8.898;2023-09-19T09:39:55;4.28;;;0.60;;
69207;SDS011;70114;47.690;8.898;2023-09-19T09:42:35;3.42;;;0.60;;
69207;SDS011;70114;47.690;8.898;2023-09-19T09:45:17;4.70;;;0.70;;
69207;SDS011;70114;47.690;8.898;2023-09-19T09:47:54;3.28;;;0.52;;
69207;SDS011;70114;47.690;8.898;2023-09-19T09:50:29;5.45;;;0.60;;
69207;SDS011;70114;47.690;8.898;2023-09-19T09:53:28;4.30;;;0.70;;
69207;SDS011;70114;47.690;8.898;2023-09-19T09:55:58;4.07;;;0.90;;
69207;SDS011;70114;47.690;8.898;2023-09-19T09:58:27;3.93;;;0.80;;
69207;SDS011;70114;47.690;8.898;2023-09-19T10:00:57;4.28;;;0.63;;
69207;SDS011;70114;47.690;8.898;2023-09-19T10:03:31;3.72;;;0.80;;
69207;SDS011;70114;47.690;8.898;2023-09-19T10:05:59;3.63;;;0.60;;
69207;SDS011;70114;47.690;8.898;2023-09-19T10:08:28;4.60;;;0.77;;
69207;SDS011;70114;47.690;8.898;2023-09-19T10:10:56;5.53;;;0.80;;
69207;SDS011;70114;47.690;8.898;2023-09-19T10:13:29;3.55;;;0.90;;
69207;SDS011;70114;47.690;8.898;2023-09-19T10:15:58;3.30;;;0.68;;
69207;SDS011;70114;47.690;8.898;2023-09-19T10:18:29;3.70;;;0.65;;
69207;SDS011;70114;47.690;8.898;2023-09-19T10:20:58;7.28;;;1.10;;
69207;SDS011;70114;47.690;8.898;2023-09-19T10:23:26;5.70;;;1.00;;
69207;SDS011;70114;47.690;8.898;2023-09-19T10:25:54;8.23;;;2.38;;
69207;SDS011;70114;47.690;8.898;2023-09-19T10:28:22;5.40;;;1.50;;
69207;SDS011;70114;47.690;8.898;2023-09-19T10:30:49;5.13;;;0.88;;
69207;SDS011;70114;47.690;8.898;2023-09-19T10:33:21;5.35;;;0.90;;
69207;SDS011;70114;47.690;8.898;2023-09-19T10:35:51;6.10;;;0.90;;
69207;SDS011;70114;47.690;8.898;2023-09-19T10:38:18;5.07;;;0.73;;
69207;SDS011;70114;47.690;8.898;2023-09-19T10:40:48;4.80;;;0.93;;
69207;SDS011;70114;47.690;8.898;2023-09-19T10:43:17;5.18;;;1.00;;
69207;SDS011;70114;47.690;8.898;2023-09-19T10:45:44;4.78;;;0.60;;
69207;SDS011;70114;47.690;8.898;2023-09-19T10:48:14;4.40;;;0.90;;
69207;SDS011;70114;47.690;8.898;2023-09-19T10:50:48;3.00;;;0.60;;
69207;SDS011;70114;47.690;8.898;2023-09-19T10:53:17;3.85;;;0.63;;
69207;SDS011;70114;47.690;8.898;2023-09-19T10:55:49;3.00;;;0.60;;
69207;SDS011;70114;47.690;8.898;2023-09-19T10:58:31;3.80;;;0.60;;
69207;SDS011;70114;47.690;8.898;2023-09-19T11:00:59;4.70;;;0.90;;
69207;SDS011;70114;47.690;8.898;2023-09-19T11:03:33;3.40;;;0.60;;
69207;SDS011;70114;47.690;8.898;2023-09-19T11:06:09;3.60;;;0.70;;
69207;SDS011;70114;47.690;8.898;2023-09-19T11:09:12;4.60;;;0.80;;
69207;SDS011;70114;47.690;8.898;2023-09-19T11:30:32;4.15;;;0.90;;
69207;SDS011;70114;47.690;8.898;2023-09-19T11:36:09;6.97;;;1.30;;
69207;SDS011;70114;47.690;8.898;2023-09-19T11:38:56;4.40;;;0.90;;
69207;SDS011;70114;47.690;8.898;2023-09-19T11:43:51;4.20;;;0.77;;
69207;SDS011;70114;47.690;8.898;2023-09-19T11:46:20;3.20;;;0.50;;
69207;SDS011;70114;47.690;8.898;2023-09-19T11:48:50;3.57;;;0.60;;
69207;SDS011;70114;47.690;8.898;2023-09-19T11:53:52;4.00;;;0.82;;
69207;SDS011;70114;47.690;8.898;2023-09-19T11:56:20;4.82;;;0.57;;
69207;SDS011;70114;47.690;8.898;2023-09-19T11:58:48;5.32;;;0.80;;
69207;SDS011;70114;47.690;8.898;2023-09-19T12:01:15;3.90;;;0.67;;
69207;SDS011;70114;47.690;8.898;2023-09-19T12:03:47;4.30;;;0.60;;
69207;SDS011;70114;47.690;8.898;2023-09-19T12:06:18;4.10;;;0.70;;
69207;SDS011;70114;47.690;8.898;2023-09-19T12:08:46;4.43;;;0.70;;
69207;SDS011;70114;47.690;8.898;2023-09-19T12:11:13;4.70;;;0.90;;
69207;SDS011;70114;47.690;8.898;2023-09-19T12:13:44;3.53;;;0.60;;
69207;SDS011;70114;47.690;8.898;2023-09-19T12:16:16;4.30;;;0.60;;
69207;SDS011;70114;47.690;8.898;2023-09-19T12:18:48;4.45;;;0.70;;
69207;SDS011;70114;47.690;8.898;2023-09-19T12:21:30;3.17;;;0.50;;
69207;SDS011;70114;47.690;8.898;2023-09-19T12:26:38;4.00;;;0.60;;
69207;SDS011;70114;47.690;8.898;2023-09-19T12:29:09;5.30;;;0.60;;
69207;SDS011;70114;47.690;8.898;2023-09-19T12:31:55;4.97;;;0.65;;
69207;SDS011;70114;47.690;8.898;2023-09-19T12:34:28;4.97;;;0.77;;
69207;SDS011;70114;47.690;8.898;2023-09-19T12:37:11;3.47;;;0.60;;
69207;SDS011;70114;47.690;8.898;2023-09-19T12:39:48;4.17;;;0.87;;
69207;SDS011;70114;47.690;8.898;2023-09-19T12:42:15;3.42;;;0.70;;
69207;SDS011;70114;47.690;8.898;2023-09-19T12:44:42;4.20;;;0.73;;
69207;SDS011;70114;47.690;8.898;2023-09-19T12:47:16;4.20;;;0.70;;
69207;SDS011;70114;47.690;8.898;2023-09-19T12:52:36;4.57;;;0.80;;
69207;SDS011;70114;47.690;8.898;2023-09-19T12:55:02;5.07;;;0.88;;
69207;SDS011;70114;47.690;8.898;2023-09-19T12:57:28;3.17;;;0.70;;
69207;SDS011;70114;47.690;8.898;2023-09-19T12:59:57;3.92;;;0.70;;
69207;SDS011;70114;47.690;8.898;2023-09-19T13:02:22;3.10;;;0.50;;
69207;SDS011;70114;47.690;8.898;2023-09-19T13:04:53;3.55;;;0.80;;
69207;SDS011;70114;47.690;8.898;2023-09-19T13:07:40;3.92;;;0.85;;
69207;SDS011;70114;47.690;8.898;2023-09-19T13:10:11;3.58;;;0.80;;
69207;SDS011;70114;47.690;8.898;2023-09-19T13:12:41;4.03;;;0.60;;
69207;SDS011;70114;47.690;8.898;2023-09-19T13:15:12;3.58;;;0.60;;
69207;SDS011;70114;47.690;8.898;2023-09-19T13:17:49;3.58;;;0.68;;
69207;SDS011;70114;47.690;8.898;2023-09-19T13:20:21;3.63;;;0.70;;
69207;SDS011;70114;47.690;8.898;2023-09-19T13:22:52;3.53;;;0.50;;
69207;SDS011;70114;47.690;8.898;2023-09-19T13:25:25;3.30;;;0.60;;
69207;SDS011;70114;47.690;8.898;2023-09-19T13:27:54;3.65;;;0.70;;
69207;SDS011;70114;47.690;8.898;2023-09-19T13:30:25;3.88;;;0.70;;
69207;SDS011;70114;47.690;8.898;2023-09-19T13:32:52;3.15;;;0.60;;
69207;SDS011;70114;47.690;8.898;2023-09-19T13:35:19;3.42;;;0.82;;
69207;SDS011;70114;47.690;8.898;2023-09-19T13:37:44;4.37;;;0.77;;
69207;SDS011;70114;47.690;8.898;2023-09-19T13:40:16;3.60;;;0.80;;
69207;SDS011;70114;47.690;8.898;2023-09-19T13:42:42;2.90;;;0.50;;
69207;SDS011;70114;47.690;8.898;2023-09-19T13:45:08;4.25;;;0.82;;
69207;SDS011;70114;47.690;8.898;2023-09-19T13:47:37;5.60;;;0.70;;
69207;SDS011;70114;47.690;8.898;2023-09-19T13:50:03;3.50;;;0.70;;
69207;SDS011;70114;47.690;8.898;2023-09-19T13:52:32;3.60;;;0.70;;
69207;SDS011;70114;47.690;8.898;2023-09-19T13:54:58;3.13;;;0.80;;
69207;SDS011;70114;47.690;8.898;2023-09-19T13:57:24;3.88;;;0.70;;
69207;SDS011;70114;47.690;8.898;2023-09-19T13:59:51;3.08;;;0.65;;
69207;SDS011;70114;47.690;8.898;2023-09-19T14:02:18;3.58;;;0.70;;
69207;SDS011;70114;47.690;8.898;2023-09-19T14:04:44;3.87;;;0.97;;
69207;SDS011;70114;47.690;8.898;2023-09-19T14:07:10;5.60;;;0.80;;
69207;SDS011;70114;47.690;8.898;2023-09-19T14:09:36;4.07;;;1.00;;
69207;SDS011;70114;47.690;8.898;2023-09-19T14:12:01;4.22;;;0.80;;
69207;SDS011;70114;47.690;8.898;2023-09-19T14:14:27;3.38;;;0.68;;
69207;SDS011;70114;47.690;8.898;2023-09-19T14:16:53;3.40;;;0.80;;
69207;SDS011;70114;47.690;8.898;2023-09-19T14:19:19;4.20;;;0.70;;
69207;SDS011;70114;47.690;8.898;2023-09-19T14:21:44;4.35;;;0.70;;
69207;SDS011;70114;47.690;8.898;2023-09-19T14:24:10;3.50;;;0.80;;
69207;SDS011;70114;47.690;8.898;2023-09-19T14:26:36;4.55;;;0.90;;
69207;SDS011;70114;47.690;8.898;2023-09-19T14:29:02;3.60;;;0.80;;
69207;SDS011;70114;47.690;8.898;2023-09-19T14:31:28;4.63;;;0.90;;
69207;SDS011;70114;47.690;8.898;2023-09-19T14:33:57;3.33;;;0.80;;
69207;SDS011;70114;47.690;8.898;2023-09-19T14:36:24;3.50;;;0.70;;
69207;SDS011;70114;47.690;8.898;2023-09-19T14:38:52;3.40;;;0.60;;
69207;SDS011;70114;47.690;8.898;2023-09-19T14:41:21;4.03;;;0.88;;
69207;SDS011;70114;47.690;8.898;2023-09-19T14:43:53;3.20;;;0.70;;
69207;SDS011;70114;47.690;8.898;2023-09-19T14:46:20;4.03;;;0.93;;
69207;SDS011;70114;47.690;8.898;2023-09-19T14:48:46;3.97;;;0.80;;
69207;SDS011;70114;47.690;8.898;2023-09-19T14:51:12;3.75;;;0.80;;
69207;SDS011;70114;47.690;8.898;2023-09-19T14:53:38;4.70;;;0.90;;
69207;SDS011;70114;47.690;8.898;2023-09-19T14:56:09;3.10;;;0.70;;
69207;SDS011;70114;47.690;8.898;2023-09-19T14:58:36;4.40;;;0.80;;
69207;SDS011;70114;47.690;8.898;2023-09-19T15:01:07;3.85;;;0.90;;
69207;SDS011;70114;47.690;8.898;2023-09-19T15:03:35;3.38;;;0.77;;
69207;SDS011;70114;47.690;8.898;2023-09-19T15:06:02;4.03;;;0.98;;
69207;SDS011;70114;47.690;8.898;2023-09-19T15:08:30;3.60;;;0.80;;
69207;SDS011;70114;47.690;8.898;2023-09-19T15:11:03;3.85;;;1.00;;
69207;SDS011;70114;47.690;8.898;2023-09-19T15:13:30;3.50;;;0.70;;
69207;SDS011;70114;47.690;8.898;2023-09-19T15:16:02;5.00;;;0.90;;
69207;SDS011;70114;47.690;8.898;2023-09-19T15:18:29;3.75;;;0.85;;
69207;SDS011;70114;47.690;8.898;2023-09-19T15:20:56;3.57;;;0.67;;
69207;SDS011;70114;47.690;8.898;2023-09-19T15:23:29;3.38;;;0.70;;
69207;SDS011;70114;47.690;8.898;2023-09-19T15:26:02;3.78;;;0.95;;
69207;SDS011;70114;47.690;8.898;2023-09-19T15:28:31;3.80;;;0.80;;
69207;SDS011;70114;47.690;8.898;2023-09-19T15:31:04;4.70;;;1.00;;
69207;SDS011;70114;47.690;8.898;2023-09-19T15:33:31;3.70;;;0.80;;
69207;SDS011;70114;47.690;8.898;2023-09-19T15:36:01;5.10;;;0.90;;
69207;SDS011;70114;47.690;8.898;2023-09-19T15:38:29;3.40;;;1.10;;
69207;SDS011;70114;47.690;8.898;2023-09-19T15:40:54;2.70;;;0.45;;
69207;SDS011;70114;47.690;8.898;2023-09-19T15:43:20;3.17;;;0.70;;
69207;SDS011;70114;47.690;8.898;2023-09-19T15:45:46;4.03;;;0.82;;